sensor_id;sensor_type;location;lat;lon;timestamp;temperature;humidity
34644;DHT22;26931;43.498;-1.506;2023-05-16T00:00:46;16.90;94.00
34644;DHT22;26931;43.498;-1.506;2023-05-16T00:03:12;16.90;94.00
34644;DHT22;26931;43.498;-1.506;2023-05-16T00:05:39;16.90;94.00
34644;DHT22;26931;43.498;-1.506;2023-05-16T00:08:05;17.00;94.00
34644;DHT22;26931;43.498;-1.506;2023-05-16T00:10:31;16.90;94.00
34644;DHT22;26931;43.498;-1.506;2023-05-16T00:12:57;16.90;94.00
34644;DHT22;26931;43.498;-1.506;2023-05-16T00:15:26;17.00;94.00
34644;DHT22;26931;43.498;-1.506;2023-05-16T00:17:54;17.00;94.00
34644;DHT22;26931;43.498;-1.506;2023-05-16T00:20:27;17.20;94.10
34644;DHT22;26931;43.498;-1.506;2023-05-16T00:22:54;17.00;94.10
34644;DHT22;26931;43.498;-1.506;2023-05-16T00:25:22;17.00;94.20
34644;DHT22;26931;43.498;-1.506;2023-05-16T00:27:48;17.00;94.60
34644;DHT22;26931;43.498;-1.506;2023-05-16T00:30:14;16.90;94.50
34644;DHT22;26931;43.498;-1.506;2023-05-16T00:32:40;16.90;94.80
34644;DHT22;26931;43.498;-1.506;2023-05-16T00:35:07;17.00;95.00
34644;DHT22;26931;43.498;-1.506;2023-05-16T00:37:35;17.00;95.30
34644;DHT22;26931;43.498;-1.506;2023-05-16T00:40:01;17.00;95.60
34644;DHT22;26931;43.498;-1.506;2023-05-16T00:42:30;17.00;95.80
34644;DHT22;26931;43.498;-1.506;2023-05-16T00:44:56;17.20;96.10
34644;DHT22;26931;43.498;-1.506;2023-05-16T00:47:22;16.90;96.20
34644;DHT22;26931;43.498;-1.506;2023-05-16T00:49:48;16.90;96.40
34644;DHT22;26931;43.498;-1.506;2023-05-16T00:52:14;16.80;96.40
34644;DHT22;26931;43.498;-1.506;2023-05-16T00:54:41;16.70;96.50
34644;DHT22;26931;43.498;-1.506;2023-05-16T00:57:07;16.70;96.60
34644;DHT22;26931;43.498;-1.506;2023-05-16T00:59:33;16.70;96.70
34644;DHT22;26931;43.498;-1.506;2023-05-16T01:02:00;16.90;97.00
34644;DHT22;26931;43.498;-1.506;2023-05-16T01:04:27;16.60;97.00
34644;DHT22;26931;43.498;-1.506;2023-05-16T01:06:55;16.60;97.00
34644;DHT22;26931;43.498;-1.506;2023-05-16T01:09:21;16.50;96.90
34644;DHT22;26931;43.498;-1.506;2023-05-16T01:11:53;16.60;96.90
34644;DHT22;26931;43.498;-1.506;2023-05-16T01:19:59;16.40;96.60
34644;DHT22;26931;43.498;-1.506;2023-05-16T01:25:44;16.30;96.20
34644;DHT22;26931;43.498;-1.506;2023-05-16T01:28:14;16.30;96.20
34644;DHT22;26931;43.498;-1.506;2023-05-16T01:30:41;16.20;96.10
34644;DHT22;26931;43.498;-1.506;2023-05-16T01:33:07;16.20;96.10
34644;DHT22;26931;43.498;-1.506;2023-05-16T01:35:38;16.20;96.10
34644;DHT22;26931;43.498;-1.506;2023-05-16T01:38:40;16.20;96.10
34644;DHT22;26931;43.498;-1.506;2023-05-16T01:41:20;16.10;96.20
34644;DHT22;26931;43.498;-1.506;2023-05-16T01:43:50;16.10;96.30
34644;DHT22;26931;43.498;-1.506;2023-05-16T01:46:23;16.00;96.40
34644;DHT22;26931;43.498;-1.506;2023-05-16T01:48:53;15.90;96.40
34644;DHT22;26931;43.498;-1.506;2023-05-16T01:51:25;16.00;96.40
34644;DHT22;26931;43.498;-1.506;2023-05-16T01:53:57;16.00;96.40
34644;DHT22;26931;43.498;-1.506;2023-05-16T01:56:27;15.90;96.40
34644;DHT22;26931;43.498;-1.506;2023-05-16T01:58:54;15.90;96.40
34644;DHT22;26931;43.498;-1.506;2023-05-16T02:01:22;15.90;96.50
34644;DHT22;26931;43.498;-1.506;2023-05-16T02:03:48;15.90;96.50
34644;DHT22;26931;43.498;-1.506;2023-05-16T02:06:15;15.90;96.60
34644;DHT22;26931;43.498;-1.506;2023-05-16T02:08:41;15.90;96.70
34644;DHT22;26931;43.498;-1.506;2023-05-16T02:11:07;15.90;96.80
34644;DHT22;26931;43.498;-1.506;2023-05-16T02:13:33;15.90;96.90
34644;DHT22;26931;43.498;-1.506;2023-05-16T02:15:59;15.90;97.00
34644;DHT22;26931;43.498;-1.506;2023-05-16T02:18:25;15.90;97.10
34644;DHT22;26931;43.498;-1.506;2023-05-16T02:20:53;15.90;97.30
34644;DHT22;26931;43.498;-1.506;2023-05-16T02:23:19;15.90;97.30
34644;DHT22;26931;43.498;-1.506;2023-05-16T02:25:45;15.90;97.40
34644;DHT22;26931;43.498;-1.506;2023-05-16T02:28:11;15.90;97.50
34644;DHT22;26931;43.498;-1.506;2023-05-16T02:30:37;16.00;97.50
34644;DHT22;26931;43.498;-1.506;2023-05-16T02:33:03;15.90;97.60
34644;DHT22;26931;43.498;-1.506;2023-05-16T02:35:29;15.90;97.60
34644;DHT22;26931;43.498;-1.506;2023-05-16T02:37:56;15.90;97.70
34644;DHT22;26931;43.498;-1.506;2023-05-16T02:40:22;15.90;97.70
34644;DHT22;26931;43.498;-1.506;2023-05-16T02:42:48;16.00;97.80
34644;DHT22;26931;43.498;-1.506;2023-05-16T02:45:14;16.00;97.80
34644;DHT22;26931;43.498;-1.506;2023-05-16T02:47:40;16.00;97.90
34644;DHT22;26931;43.498;-1.506;2023-05-16T02:50:07;15.90;98.00
34644;DHT22;26931;43.498;-1.506;2023-05-16T02:52:33;16.00;98.10
34644;DHT22;26931;43.498;-1.506;2023-05-16T02:54:59;16.00;98.20
34644;DHT22;26931;43.498;-1.506;2023-05-16T02:57:25;16.00;98.30
34644;DHT22;26931;43.498;-1.506;2023-05-16T02:59:51;16.00;98.30
34644;DHT22;26931;43.498;-1.506;2023-05-16T03:02:17;16.00;98.40
34644;DHT22;26931;43.498;-1.506;2023-05-16T03:04:43;16.00;98.50
34644;DHT22;26931;43.498;-1.506;2023-05-16T03:07:09;16.00;98.50
34644;DHT22;26931;43.498;-1.506;2023-05-16T03:09:35;16.10;98.60
34644;DHT22;26931;43.498;-1.506;2023-05-16T03:12:01;16.10;98.60
34644;DHT22;26931;43.498;-1.506;2023-05-16T03:14:27;16.10;98.50
34644;DHT22;26931;43.498;-1.506;2023-05-16T03:16:53;16.20;98.50
34644;DHT22;26931;43.498;-1.506;2023-05-16T03:19:19;16.10;98.40
34644;DHT22;26931;43.498;-1.506;2023-05-16T03:21:45;16.20;98.30
34644;DHT22;26931;43.498;-1.506;2023-05-16T03:24:11;16.20;98.30
34644;DHT22;26931;43.498;-1.506;2023-05-16T03:26:37;16.20;98.30
34644;DHT22;26931;43.498;-1.506;2023-05-16T03:29:03;16.50;98.40
34644;DHT22;26931;43.498;-1.506;2023-05-16T03:31:30;16.30;98.30
34644;DHT22;26931;43.498;-1.506;2023-05-16T03:33:57;16.20;98.30
34644;DHT22;26931;43.498;-1.506;2023-05-16T03:36:23;16.30;98.30
34644;DHT22;26931;43.498;-1.506;2023-05-16T03:38:49;16.30;98.30
34644;DHT22;26931;43.498;-1.506;2023-05-16T03:41:15;16.50;98.40
34644;DHT22;26931;43.498;-1.506;2023-05-16T03:43:41;16.30;98.30
34644;DHT22;26931;43.498;-1.506;2023-05-16T03:46:07;16.30;98.30
34644;DHT22;26931;43.498;-1.506;2023-05-16T03:48:34;16.30;98.40
34644;DHT22;26931;43.498;-1.506;2023-05-16T03:51:00;16.30;98.50
34644;DHT22;26931;43.498;-1.506;2023-05-16T03:53:26;16.30;98.60
34644;DHT22;26931;43.498;-1.506;2023-05-16T03:55:52;16.30;98.70
34644;DHT22;26931;43.498;-1.506;2023-05-16T03:58:18;16.30;98.80
34644;DHT22;26931;43.498;-1.506;2023-05-16T04:00:44;16.50;98.80
34644;DHT22;26931;43.498;-1.506;2023-05-16T04:03:13;16.30;98.80
34644;DHT22;26931;43.498;-1.506;2023-05-16T04:05:39;16.40;98.70
34644;DHT22;26931;43.498;-1.506;2023-05-16T04:08:06;16.30;98.60
34644;DHT22;26931;43.498;-1.506;2023-05-16T04:10:32;16.30;98.50
34644;DHT22;26931;43.498;-1.506;2023-05-16T04:12:58;16.30;98.50
34644;DHT22;26931;43.498;-1.506;2023-05-16T04:15:24;16.40;98.40
34644;DHT22;26931;43.498;-1.506;2023-05-16T04:17:50;16.30;98.20
34644;DHT22;26931;43.498;-1.506;2023-05-16T04:20:16;16.20;98.10
34644;DHT22;26931;43.498;-1.506;2023-05-16T04:22:42;16.40;98.10
34644;DHT22;26931;43.498;-1.506;2023-05-16T04:25:08;16.50;98.10
34644;DHT22;26931;43.498;-1.506;2023-05-16T04:27:35;16.40;98.00
34644;DHT22;26931;43.498;-1.506;2023-05-16T04:30:01;16.40;97.90
34644;DHT22;26931;43.498;-1.506;2023-05-16T04:32:28;16.40;97.80
34644;DHT22;26931;43.498;-1.506;2023-05-16T04:34:54;16.40;97.80
34644;DHT22;26931;43.498;-1.506;2023-05-16T04:37:20;16.40;97.80
34644;DHT22;26931;43.498;-1.506;2023-05-16T04:39:47;16.60;97.90
34644;DHT22;26931;43.498;-1.506;2023-05-16T04:42:13;16.40;97.80
34644;DHT22;26931;43.498;-1.506;2023-05-16T04:44:39;16.40;97.80
34644;DHT22;26931;43.498;-1.506;2023-05-16T04:47:05;16.40;97.70
34644;DHT22;26931;43.498;-1.506;2023-05-16T04:49:32;16.60;97.70
34644;DHT22;26931;43.498;-1.506;2023-05-16T04:51:58;16.30;97.60
34644;DHT22;26931;43.498;-1.506;2023-05-16T04:54:24;16.30;97.50
34644;DHT22;26931;43.498;-1.506;2023-05-16T04:56:50;16.30;97.50
34644;DHT22;26931;43.498;-1.506;2023-05-16T04:59:16;16.40;97.40
34644;DHT22;26931;43.498;-1.506;2023-05-16T05:01:43;16.30;97.40
34644;DHT22;26931;43.498;-1.506;2023-05-16T05:04:09;16.40;97.30
34644;DHT22;26931;43.498;-1.506;2023-05-16T05:06:35;16.50;97.30
34644;DHT22;26931;43.498;-1.506;2023-05-16T05:09:01;16.40;97.30
34644;DHT22;26931;43.498;-1.506;2023-05-16T05:11:27;16.40;97.30
34644;DHT22;26931;43.498;-1.506;2023-05-16T05:13:53;16.40;97.30
34644;DHT22;26931;43.498;-1.506;2023-05-16T05:16:19;16.40;97.30
34644;DHT22;26931;43.498;-1.506;2023-05-16T05:18:45;16.40;97.40
34644;DHT22;26931;43.498;-1.506;2023-05-16T05:21:12;16.40;97.40
34644;DHT22;26931;43.498;-1.506;2023-05-16T05:23:38;16.40;97.30
34644;DHT22;26931;43.498;-1.506;2023-05-16T05:26:04;16.40;97.30
34644;DHT22;26931;43.498;-1.506;2023-05-16T05:28:30;16.40;97.30
34644;DHT22;26931;43.498;-1.506;2023-05-16T05:30:56;16.40;97.20
34644;DHT22;26931;43.498;-1.506;2023-05-16T05:33:26;16.40;97.20
34644;DHT22;26931;43.498;-1.506;2023-05-16T05:35:54;16.40;97.10
34644;DHT22;26931;43.498;-1.506;2023-05-16T05:38:20;16.40;97.10
34644;DHT22;26931;43.498;-1.506;2023-05-16T05:40:46;16.40;97.00
34644;DHT22;26931;43.498;-1.506;2023-05-16T05:43:12;16.40;97.00
34644;DHT22;26931;43.498;-1.506;2023-05-16T05:45:38;16.40;97.00
34644;DHT22;26931;43.498;-1.506;2023-05-16T05:48:06;16.40;97.00
34644;DHT22;26931;43.498;-1.506;2023-05-16T05:50:33;16.40;96.90
34644;DHT22;26931;43.498;-1.506;2023-05-16T05:52:59;16.40;96.90
34644;DHT22;26931;43.498;-1.506;2023-05-16T05:55:25;16.40;96.80
34644;DHT22;26931;43.498;-1.506;2023-05-16T05:57:54;16.40;96.80
34644;DHT22;26931;43.498;-1.506;2023-05-16T06:00:21;16.40;96.70
34644;DHT22;26931;43.498;-1.506;2023-05-16T06:02:47;16.40;96.70
34644;DHT22;26931;43.498;-1.506;2023-05-16T06:05:13;16.30;96.60
34644;DHT22;26931;43.498;-1.506;2023-05-16T06:07:39;16.50;96.70
34644;DHT22;26931;43.498;-1.506;2023-05-16T06:10:05;16.40;96.60
34644;DHT22;26931;43.498;-1.506;2023-05-16T06:12:33;16.50;96.70
34644;DHT22;26931;43.498;-1.506;2023-05-16T06:14:59;16.50;96.60
34644;DHT22;26931;43.498;-1.506;2023-05-16T06:17:25;16.50;96.60
34644;DHT22;26931;43.498;-1.506;2023-05-16T06:19:51;16.50;96.50
34644;DHT22;26931;43.498;-1.506;2023-05-16T06:22:17;16.50;96.50
34644;DHT22;26931;43.498;-1.506;2023-05-16T06:24:43;16.60;96.40
34644;DHT22;26931;43.498;-1.506;2023-05-16T06:27:09;16.50;96.30
34644;DHT22;26931;43.498;-1.506;2023-05-16T06:29:35;16.70;96.30
34644;DHT22;26931;43.498;-1.506;2023-05-16T06:32:01;16.50;96.30
34644;DHT22;26931;43.498;-1.506;2023-05-16T06:34:27;16.60;96.40
34644;DHT22;26931;43.498;-1.506;2023-05-16T06:36:54;16.60;96.30
34644;DHT22;26931;43.498;-1.506;2023-05-16T06:39:20;16.50;96.20
34644;DHT22;26931;43.498;-1.506;2023-05-16T06:41:46;16.60;96.20
34644;DHT22;26931;43.498;-1.506;2023-05-16T06:44:12;16.60;96.20
34644;DHT22;26931;43.498;-1.506;2023-05-16T06:46:38;16.60;96.20
34644;DHT22;26931;43.498;-1.506;2023-05-16T06:49:04;16.60;96.10
34644;DHT22;26931;43.498;-1.506;2023-05-16T06:51:32;16.50;96.00
34644;DHT22;26931;43.498;-1.506;2023-05-16T06:53:58;16.60;96.00
34644;DHT22;26931;43.498;-1.506;2023-05-16T06:56:24;16.70;96.10
34644;DHT22;26931;43.498;-1.506;2023-05-16T06:58:50;16.70;96.10
34644;DHT22;26931;43.498;-1.506;2023-05-16T07:01:16;16.70;96.10
34644;DHT22;26931;43.498;-1.506;2023-05-16T07:03:42;16.90;96.20
34644;DHT22;26931;43.498;-1.506;2023-05-16T07:06:08;16.70;96.10
34644;DHT22;26931;43.498;-1.506;2023-05-16T07:08:34;16.90;96.10
34644;DHT22;26931;43.498;-1.506;2023-05-16T07:11:01;16.80;96.00
34644;DHT22;26931;43.498;-1.506;2023-05-16T07:13:27;16.80;96.00
34644;DHT22;26931;43.498;-1.506;2023-05-16T07:15:54;16.80;96.00
34644;DHT22;26931;43.498;-1.506;2023-05-16T07:18:20;16.90;96.00
34644;DHT22;26931;43.498;-1.506;2023-05-16T07:20:46;16.90;96.00
34644;DHT22;26931;43.498;-1.506;2023-05-16T07:23:12;16.80;96.00
34644;DHT22;26931;43.498;-1.506;2023-05-16T07:25:39;16.80;96.10
34644;DHT22;26931;43.498;-1.506;2023-05-16T07:28:05;16.90;96.20
34644;DHT22;26931;43.498;-1.506;2023-05-16T07:30:31;16.90;96.10
34644;DHT22;26931;43.498;-1.506;2023-05-16T07:32:57;16.90;96.10
34644;DHT22;26931;43.498;-1.506;2023-05-16T07:35:23;16.90;96.00
34644;DHT22;26931;43.498;-1.506;2023-05-16T07:37:50;16.90;96.00
34644;DHT22;26931;43.498;-1.506;2023-05-16T07:40:16;17.20;96.00
34644;DHT22;26931;43.498;-1.506;2023-05-16T07:42:43;16.90;95.90
34644;DHT22;26931;43.498;-1.506;2023-05-16T07:45:09;16.90;95.90
34644;DHT22;26931;43.498;-1.506;2023-05-16T07:47:35;17.10;96.00
34644;DHT22;26931;43.498;-1.506;2023-05-16T07:50:01;17.00;95.90
34644;DHT22;26931;43.498;-1.506;2023-05-16T07:52:27;17.00;95.90
34644;DHT22;26931;43.498;-1.506;2023-05-16T07:54:54;17.20;95.80
34644;DHT22;26931;43.498;-1.506;2023-05-16T07:57:20;17.10;95.70
34644;DHT22;26931;43.498;-1.506;2023-05-16T07:59:46;17.10;95.60
34644;DHT22;26931;43.498;-1.506;2023-05-16T08:02:12;17.10;95.60
34644;DHT22;26931;43.498;-1.506;2023-05-16T08:04:39;17.20;95.60
34644;DHT22;26931;43.498;-1.506;2023-05-16T08:07:05;17.20;95.50
34644;DHT22;26931;43.498;-1.506;2023-05-16T08:09:31;17.50;95.60
34644;DHT22;26931;43.498;-1.506;2023-05-16T08:11:57;17.30;95.40
34644;DHT22;26931;43.498;-1.506;2023-05-16T08:14:29;17.30;95.40
34644;DHT22;26931;43.498;-1.506;2023-05-16T08:16:57;17.30;95.40
34644;DHT22;26931;43.498;-1.506;2023-05-16T08:19:23;17.30;95.30
34644;DHT22;26931;43.498;-1.506;2023-05-16T08:21:49;17.30;95.20
34644;DHT22;26931;43.498;-1.506;2023-05-16T08:24:15;17.30;95.10
34644;DHT22;26931;43.498;-1.506;2023-05-16T08:26:41;17.30;94.90
34644;DHT22;26931;43.498;-1.506;2023-05-16T08:29:07;17.30;94.80
34644;DHT22;26931;43.498;-1.506;2023-05-16T08:31:34;17.30;94.70
34644;DHT22;26931;43.498;-1.506;2023-05-16T08:34:00;17.30;94.60
34644;DHT22;26931;43.498;-1.506;2023-05-16T08:36:31;17.60;94.60
34644;DHT22;26931;43.498;-1.506;2023-05-16T08:39:00;17.50;94.40
34644;DHT22;26931;43.498;-1.506;2023-05-16T08:41:26;17.50;94.20
34644;DHT22;26931;43.498;-1.506;2023-05-16T08:43:52;17.50;94.10
34644;DHT22;26931;43.498;-1.506;2023-05-16T08:46:21;17.80;94.10
34644;DHT22;26931;43.498;-1.506;2023-05-16T08:48:51;17.60;94.00
34644;DHT22;26931;43.498;-1.506;2023-05-16T08:51:19;17.60;93.90
34644;DHT22;26931;43.498;-1.506;2023-05-16T08:53:53;17.70;93.80
34644;DHT22;26931;43.498;-1.506;2023-05-16T08:56:20;17.70;93.60
34644;DHT22;26931;43.498;-1.506;2023-05-16T08:58:49;17.70;93.40
34644;DHT22;26931;43.498;-1.506;2023-05-16T09:01:16;17.80;93.30
34644;DHT22;26931;43.498;-1.506;2023-05-16T09:03:43;18.10;93.10
34644;DHT22;26931;43.498;-1.506;2023-05-16T09:06:09;17.90;93.00
34644;DHT22;26931;43.498;-1.506;2023-05-16T09:08:35;18.00;92.80
34644;DHT22;26931;43.498;-1.506;2023-05-16T09:11:02;18.00;92.60
34644;DHT22;26931;43.498;-1.506;2023-05-16T09:13:29;18.30;92.40
34644;DHT22;26931;43.498;-1.506;2023-05-16T09:16:14;18.40;92.00
34644;DHT22;26931;43.498;-1.506;2023-05-16T09:18:52;18.40;91.40
34644;DHT22;26931;43.498;-1.506;2023-05-16T09:21:18;18.40;91.30
34644;DHT22;26931;43.498;-1.506;2023-05-16T09:23:48;18.60;91.30
34644;DHT22;26931;43.498;-1.506;2023-05-16T09:26:15;18.60;91.20
34644;DHT22;26931;43.498;-1.506;2023-05-16T09:28:42;18.50;91.10
34644;DHT22;26931;43.498;-1.506;2023-05-16T09:31:28;18.50;91.00
34644;DHT22;26931;43.498;-1.506;2023-05-16T09:34:07;18.50;90.80
34644;DHT22;26931;43.498;-1.506;2023-05-16T09:36:33;18.50;90.80
34644;DHT22;26931;43.498;-1.506;2023-05-16T09:39:00;18.40;90.70
34644;DHT22;26931;43.498;-1.506;2023-05-16T09:41:26;18.40;90.60
34644;DHT22;26931;43.498;-1.506;2023-05-16T09:43:53;18.40;90.60
34644;DHT22;26931;43.498;-1.506;2023-05-16T09:46:25;18.60;90.40
34644;DHT22;26931;43.498;-1.506;2023-05-16T09:48:52;18.40;90.20
34644;DHT22;26931;43.498;-1.506;2023-05-16T09:51:21;18.50;90.30
34644;DHT22;26931;43.498;-1.506;2023-05-16T09:53:48;18.50;90.10
34644;DHT22;26931;43.498;-1.506;2023-05-16T09:56:17;18.40;90.30
34644;DHT22;26931;43.498;-1.506;2023-05-16T09:58:44;18.40;90.00
34644;DHT22;26931;43.498;-1.506;2023-05-16T10:01:12;18.50;89.70
34644;DHT22;26931;43.498;-1.506;2023-05-16T10:03:40;18.60;89.60
34644;DHT22;26931;43.498;-1.506;2023-05-16T10:06:08;18.40;89.30
34644;DHT22;26931;43.498;-1.506;2023-05-16T10:08:35;18.30;89.00
34644;DHT22;26931;43.498;-1.506;2023-05-16T10:11:05;18.40;88.60
34644;DHT22;26931;43.498;-1.506;2023-05-16T10:13:33;18.50;88.40
34644;DHT22;26931;43.498;-1.506;2023-05-16T10:16:05;18.50;88.20
34644;DHT22;26931;43.498;-1.506;2023-05-16T10:18:32;18.40;88.00
34644;DHT22;26931;43.498;-1.506;2023-05-16T10:21:09;18.50;88.00
34644;DHT22;26931;43.498;-1.506;2023-05-16T10:23:37;18.60;87.70
34644;DHT22;26931;43.498;-1.506;2023-05-16T10:26:06;18.50;87.60
34644;DHT22;26931;43.498;-1.506;2023-05-16T10:28:34;18.60;87.70
34644;DHT22;26931;43.498;-1.506;2023-05-16T10:31:01;18.80;87.80
34644;DHT22;26931;43.498;-1.506;2023-05-16T10:33:27;18.80;87.70
34644;DHT22;26931;43.498;-1.506;2023-05-16T10:35:54;18.90;87.50
34644;DHT22;26931;43.498;-1.506;2023-05-16T10:38:21;18.80;87.40
34644;DHT22;26931;43.498;-1.506;2023-05-16T10:40:49;18.70;87.10
34644;DHT22;26931;43.498;-1.506;2023-05-16T10:43:31;18.60;87.00
34644;DHT22;26931;43.498;-1.506;2023-05-16T10:46:06;18.80;87.20
34644;DHT22;26931;43.498;-1.506;2023-05-16T10:48:41;18.70;87.20
34644;DHT22;26931;43.498;-1.506;2023-05-16T10:53:53;18.60;86.50
34644;DHT22;26931;43.498;-1.506;2023-05-16T10:56:24;18.60;86.30
34644;DHT22;26931;43.498;-1.506;2023-05-16T10:58:52;18.50;86.00
34644;DHT22;26931;43.498;-1.506;2023-05-16T11:01:35;18.60;86.10
34644;DHT22;26931;43.498;-1.506;2023-05-16T11:04:03;18.50;86.00
34644;DHT22;26931;43.498;-1.506;2023-05-16T11:06:31;18.40;85.40
34644;DHT22;26931;43.498;-1.506;2023-05-16T11:11:46;18.40;84.10
34644;DHT22;26931;43.498;-1.506;2023-05-16T11:14:39;18.60;83.90
34644;DHT22;26931;43.498;-1.506;2023-05-16T11:17:19;18.30;83.90
34644;DHT22;26931;43.498;-1.506;2023-05-16T11:19:50;18.40;83.30
34644;DHT22;26931;43.498;-1.506;2023-05-16T11:25:07;18.30;83.50
34644;DHT22;26931;43.498;-1.506;2023-05-16T11:27:36;18.30;83.60
34644;DHT22;26931;43.498;-1.506;2023-05-16T11:32:37;18.30;83.70
34644;DHT22;26931;43.498;-1.506;2023-05-16T11:35:04;18.20;83.50
34644;DHT22;26931;43.498;-1.506;2023-05-16T11:37:32;18.20;83.70
34644;DHT22;26931;43.498;-1.506;2023-05-16T11:40:02;18.20;84.20
34644;DHT22;26931;43.498;-1.506;2023-05-16T11:42:29;18.20;84.80
34644;DHT22;26931;43.498;-1.506;2023-05-16T11:45:08;18.10;84.30
34644;DHT22;26931;43.498;-1.506;2023-05-16T11:47:36;18.10;83.60
34644;DHT22;26931;43.498;-1.506;2023-05-16T11:50:15;18.00;83.30
34644;DHT22;26931;43.498;-1.506;2023-05-16T11:52:46;18.00;83.50
34644;DHT22;26931;43.498;-1.506;2023-05-16T11:55:13;18.00;83.00
34644;DHT22;26931;43.498;-1.506;2023-05-16T11:57:41;17.80;82.90
34644;DHT22;26931;43.498;-1.506;2023-05-16T12:00:15;18.10;83.20
34644;DHT22;26931;43.498;-1.506;2023-05-16T12:02:44;17.80;82.80
34644;DHT22;26931;43.498;-1.506;2023-05-16T12:05:14;17.90;82.70
34644;DHT22;26931;43.498;-1.506;2023-05-16T12:07:42;17.90;82.80
34644;DHT22;26931;43.498;-1.506;2023-05-16T12:10:10;17.90;82.90
34644;DHT22;26931;43.498;-1.506;2023-05-16T12:12:39;17.80;81.80
34644;DHT22;26931;43.498;-1.506;2023-05-16T12:15:07;17.80;81.00
34644;DHT22;26931;43.498;-1.506;2023-05-16T12:17:35;17.80;80.70
34644;DHT22;26931;43.498;-1.506;2023-05-16T12:20:02;17.80;80.80
34644;DHT22;26931;43.498;-1.506;2023-05-16T12:22:31;17.90;81.30
34644;DHT22;26931;43.498;-1.506;2023-05-16T12:25:20;17.90;81.30
34644;DHT22;26931;43.498;-1.506;2023-05-16T12:27:46;17.90;80.10
34644;DHT22;26931;43.498;-1.506;2023-05-16T12:30:12;17.80;79.70
34644;DHT22;26931;43.498;-1.506;2023-05-16T12:32:41;17.80;79.30
34644;DHT22;26931;43.498;-1.506;2023-05-16T12:35:09;17.80;79.30
34644;DHT22;26931;43.498;-1.506;2023-05-16T12:37:37;17.80;79.40
34644;DHT22;26931;43.498;-1.506;2023-05-16T12:40:08;17.90;80.10
34644;DHT22;26931;43.498;-1.506;2023-05-16T12:42:37;17.80;80.00
34644;DHT22;26931;43.498;-1.506;2023-05-16T12:45:04;17.80;79.60
34644;DHT22;26931;43.498;-1.506;2023-05-16T12:47:37;17.80;80.00
34644;DHT22;26931;43.498;-1.506;2023-05-16T12:50:11;17.90;80.40
34644;DHT22;26931;43.498;-1.506;2023-05-16T12:52:57;17.90;80.20
34644;DHT22;26931;43.498;-1.506;2023-05-16T12:55:23;18.00;79.80
34644;DHT22;26931;43.498;-1.506;2023-05-16T12:57:50;17.80;79.40
34644;DHT22;26931;43.498;-1.506;2023-05-16T13:00:19;17.70;79.40
34644;DHT22;26931;43.498;-1.506;2023-05-16T13:02:49;17.70;79.60
34644;DHT22;26931;43.498;-1.506;2023-05-16T13:05:16;17.70;79.70
34644;DHT22;26931;43.498;-1.506;2023-05-16T13:07:42;17.70;80.00
34644;DHT22;26931;43.498;-1.506;2023-05-16T13:10:09;17.70;80.20
34644;DHT22;26931;43.498;-1.506;2023-05-16T13:12:39;17.70;80.20
34644;DHT22;26931;43.498;-1.506;2023-05-16T13:15:07;17.80;80.10
34644;DHT22;26931;43.498;-1.506;2023-05-16T13:17:34;17.80;80.20
34644;DHT22;26931;43.498;-1.506;2023-05-16T13:20:01;17.90;80.50
34644;DHT22;26931;43.498;-1.506;2023-05-16T13:22:29;17.80;80.40
34644;DHT22;26931;43.498;-1.506;2023-05-16T13:24:56;17.90;80.20
34644;DHT22;26931;43.498;-1.506;2023-05-16T13:27:22;17.90;80.10
34644;DHT22;26931;43.498;-1.506;2023-05-16T13:29:48;17.80;80.00
34644;DHT22;26931;43.498;-1.506;2023-05-16T13:32:14;17.80;80.20
34644;DHT22;26931;43.498;-1.506;2023-05-16T13:34:40;17.90;80.20
34644;DHT22;26931;43.498;-1.506;2023-05-16T13:37:06;17.80;79.80
34644;DHT22;26931;43.498;-1.506;2023-05-16T13:39:32;17.80;79.60
34644;DHT22;26931;43.498;-1.506;2023-05-16T13:41:58;17.80;79.80
34644;DHT22;26931;43.498;-1.506;2023-05-16T13:44:25;17.80;80.00
34644;DHT22;26931;43.498;-1.506;2023-05-16T13:46:51;17.80;80.00
34644;DHT22;26931;43.498;-1.506;2023-05-16T13:49:17;17.80;80.00
34644;DHT22;26931;43.498;-1.506;2023-05-16T13:51:43;17.80;79.90
34644;DHT22;26931;43.498;-1.506;2023-05-16T13:54:10;17.80;79.90
34644;DHT22;26931;43.498;-1.506;2023-05-16T13:56:36;17.70;79.50
34644;DHT22;26931;43.498;-1.506;2023-05-16T13:59:02;17.60;78.80
34644;DHT22;26931;43.498;-1.506;2023-05-16T14:01:28;17.70;78.40
34644;DHT22;26931;43.498;-1.506;2023-05-16T14:03:54;17.60;78.30
34644;DHT22;26931;43.498;-1.506;2023-05-16T14:06:20;17.70;78.60
34644;DHT22;26931;43.498;-1.506;2023-05-16T14:08:46;17.70;78.70
34644;DHT22;26931;43.498;-1.506;2023-05-16T14:11:13;17.70;79.00
34644;DHT22;26931;43.498;-1.506;2023-05-16T14:13:39;17.80;79.00
34644;DHT22;26931;43.498;-1.506;2023-05-16T14:16:05;18.00;79.00
34644;DHT22;26931;43.498;-1.506;2023-05-16T14:18:34;17.80;77.90
34644;DHT22;26931;43.498;-1.506;2023-05-16T14:21:00;18.00;77.20
34644;DHT22;26931;43.498;-1.506;2023-05-16T14:23:27;17.70;76.80
34644;DHT22;26931;43.498;-1.506;2023-05-16T14:25:53;17.70;76.70
34644;DHT22;26931;43.498;-1.506;2023-05-16T14:28:20;17.70;76.50
34644;DHT22;26931;43.498;-1.506;2023-05-16T14:30:46;17.70;76.30
34644;DHT22;26931;43.498;-1.506;2023-05-16T14:33:12;17.70;76.00
34644;DHT22;26931;43.498;-1.506;2023-05-16T14:35:39;17.60;76.30
34644;DHT22;26931;43.498;-1.506;2023-05-16T14:38:05;17.60;76.40
34644;DHT22;26931;43.498;-1.506;2023-05-16T14:40:32;17.60;76.40
34644;DHT22;26931;43.498;-1.506;2023-05-16T14:42:59;17.60;76.00
34644;DHT22;26931;43.498;-1.506;2023-05-16T14:45:25;17.50;75.90
34644;DHT22;26931;43.498;-1.506;2023-05-16T14:47:51;17.60;76.00
34644;DHT22;26931;43.498;-1.506;2023-05-16T14:50:17;17.70;76.10
34644;DHT22;26931;43.498;-1.506;2023-05-16T14:52:43;17.90;76.10
34644;DHT22;26931;43.498;-1.506;2023-05-16T14:55:09;17.60;75.80
34644;DHT22;26931;43.498;-1.506;2023-05-16T14:57:35;17.90;75.90
34644;DHT22;26931;43.498;-1.506;2023-05-16T15:00:02;17.70;75.50
34644;DHT22;26931;43.498;-1.506;2023-05-16T15:02:28;17.70;75.20
34644;DHT22;26931;43.498;-1.506;2023-05-16T15:04:54;17.50;74.90
34644;DHT22;26931;43.498;-1.506;2023-05-16T15:07:21;17.70;74.80
34644;DHT22;26931;43.498;-1.506;2023-05-16T15:09:47;17.70;74.40
34644;DHT22;26931;43.498;-1.506;2023-05-16T15:12:13;17.70;74.20
34644;DHT22;26931;43.498;-1.506;2023-05-16T15:14:40;17.70;74.20
34644;DHT22;26931;43.498;-1.506;2023-05-16T15:17:06;17.80;74.10
34644;DHT22;26931;43.498;-1.506;2023-05-16T15:19:32;18.00;74.20
34644;DHT22;26931;43.498;-1.506;2023-05-16T15:21:58;17.80;74.00
34644;DHT22;26931;43.498;-1.506;2023-05-16T15:24:25;17.80;74.00
34644;DHT22;26931;43.498;-1.506;2023-05-16T15:26:51;17.60;73.80
34644;DHT22;26931;43.498;-1.506;2023-05-16T15:29:17;17.90;74.00
34644;DHT22;26931;43.498;-1.506;2023-05-16T15:31:44;17.70;73.90
34644;DHT22;26931;43.498;-1.506;2023-05-16T15:34:11;17.80;74.00
34644;DHT22;26931;43.498;-1.506;2023-05-16T15:36:37;17.80;74.10